createdAt,value
2022-12-26T00:02:10.418Z,101108.28
2022-12-26T00:04:50.127Z,101118.56
2022-12-26T00:07:19.315Z,101120.31
2022-12-26T00:09:46.077Z,101126.38
2022-12-26T00:12:12.849Z,101133.31
2022-12-26T00:14:40.417Z,101130.72
2022-12-26T00:17:07.328Z,101135.81
2022-12-26T00:19:34.190Z,101143.50
2022-12-26T00:22:03.300Z,101139.19
2022-12-26T00:24:30.269Z,101133.22
2022-12-26T00:26:57.051Z,101140.97
2022-12-26T00:29:25.955Z,101144.44
2022-12-26T00:31:53.001Z,101154.69
2022-12-26T00:34:19.761Z,101157.25
2022-12-26T00:36:46.498Z,101146.00
2022-12-26T00:39:13.337Z,101144.25
2022-12-26T00:41:40.061Z,101156.28
2022-12-26T00:44:06.808Z,101157.94
2022-12-26T00:46:33.579Z,101168.25
2022-12-26T00:49:00.572Z,101169.09
2022-12-26T00:51:27.375Z,101189.72
2022-12-26T00:53:54.189Z,101190.53
2022-12-26T00:56:20.955Z,101181.91
2022-12-26T00:58:47.675Z,101179.25
2022-12-26T01:01:21.152Z,101178.28
2022-12-26T01:03:48.807Z,101181.69
2022-12-26T01:06:16.213Z,101194.56
2022-12-26T01:08:43.627Z,101190.22
2022-12-26T01:11:12.717Z,101197.91
2022-12-26T01:13:39.696Z,101195.41
2022-12-26T01:16:07.670Z,101201.47
2022-12-26T01:18:35.689Z,101204.09
2022-12-26T01:21:11.488Z,101202.41
2022-12-26T01:23:38.253Z,101207.63
2022-12-26T01:26:15.143Z,101217.09
2022-12-26T01:28:48.905Z,101217.13
2022-12-26T01:31:15.838Z,101222.28
2022-12-26T01:33:42.630Z,101221.44
2022-12-26T01:36:09.669Z,101218.91
2022-12-26T01:38:36.777Z,101238.69
2022-12-26T01:41:21.998Z,101241.16
2022-12-26T01:43:59.408Z,101232.44
2022-12-26T01:46:46.481Z,101241.81
2022-12-26T01:49:36.841Z,101239.13
2022-12-26T01:52:09.322Z,101250.28
2022-12-26T01:54:42.834Z,101247.72
2022-12-26T01:57:31.356Z,101263.16
2022-12-26T02:00:01.646Z,101256.28
2022-12-26T02:02:30.192Z,101261.41
2022-12-26T02:05:16.772Z,101275.13
2022-12-26T02:07:45.935Z,101281.16
2022-12-26T02:10:19.257Z,101284.50
2022-12-26T02:12:46.910Z,101275.00
2022-12-26T02:15:18.689Z,101277.59
2022-12-26T02:17:45.750Z,101286.13
2022-12-26T02:20:23.602Z,101287.75
2022-12-26T02:23:29.358Z,101285.97
2022-12-26T02:26:14.311Z,101298.84
2022-12-26T02:29:05.444Z,101288.53
2022-12-26T02:31:52.525Z,101294.47
2022-12-26T02:34:41.003Z,101290.03
2022-12-26T02:37:24.442Z,101289.19
2022-12-26T02:40:18.447Z,101286.63
2022-12-26T02:42:53.802Z,101285.03
2022-12-26T02:45:56.770Z,101311.78
2022-12-26T02:48:42.249Z,101309.25
2022-12-26T02:51:43.383Z,101316.25
2022-12-26T02:54:33.578Z,101315.34
2022-12-26T02:57:24.847Z,101312.78
2022-12-26T03:00:35.973Z,101312.78
2022-12-26T03:03:37.289Z,101311.09
2022-12-26T03:06:28.744Z,101317.19
2022-12-26T03:09:40.122Z,101319.00
2022-12-26T03:13:13.232Z,101328.47
2022-12-26T03:16:14.691Z,101342.25
2022-12-26T03:18:59.473Z,101350.88
2022-12-26T03:21:31.749Z,101350.78
2022-12-26T03:23:58.384Z,101348.03
2022-12-26T03:26:40.390Z,101347.09
2022-12-26T03:29:35.204Z,101346.16
2022-12-26T03:32:08.966Z,101345.22
2022-12-26T03:34:42.015Z,101343.47
2022-12-26T03:37:47.973Z,101343.44
2022-12-26T03:40:56.594Z,101343.47
2022-12-26T03:44:17.691Z,101346.09
2022-12-26T03:47:08.925Z,101342.78
2022-12-26T03:50:04.068Z,101341.94
2022-12-26T03:52:55.223Z,101348.03
2022-12-26T03:55:55.246Z,101357.59
2022-12-26T03:59:13.421Z,101349.03
2022-12-26T04:02:01.782Z,101357.72
2022-12-26T04:04:52.065Z,101356.91
2022-12-26T04:07:56.064Z,101361.22
2022-12-26T04:10:49.770Z,101367.25
2022-12-26T04:13:44.484Z,101378.44
2022-12-26T04:16:47.563Z,101379.22
2022-12-26T04:19:36.248Z,101367.91
2022-12-26T04:22:25.936Z,101362.72
2022-12-26T04:25:19.702Z,101370.41
2022-12-26T04:28:05.238Z,101366.16
2022-12-26T04:30:54.003Z,101368.78
2022-12-26T04:33:47.845Z,101374.00
2022-12-26T04:36:46.271Z,101377.50
2022-12-26T04:39:35.003Z,101374.97
2022-12-26T04:42:21.416Z,101375.91
2022-12-26T04:44:50.342Z,101371.66
2022-12-26T04:47:17.622Z,101367.34
2022-12-26T04:50:04.187Z,101375.06
2022-12-26T04:52:50.127Z,101377.63
2022-12-26T04:55:20.538Z,101395.53
2022-12-26T04:57:47.294Z,101414.34
2022-12-26T05:00:14.548Z,101421.09
2022-12-26T05:02:59.855Z,101425.28
2022-12-26T05:05:45.411Z,101430.25
2022-12-26T05:08:54.029Z,101413.63
2022-12-26T05:11:20.815Z,101383.31
2022-12-26T05:13:47.528Z,101399.59
2022-12-26T05:16:33.031Z,101406.44
2022-12-26T05:19:18.189Z,101403.00
2022-12-26T05:22:03.898Z,101396.09
2022-12-26T05:24:53.995Z,101389.31
2022-12-26T05:27:39.786Z,101398.91
2022-12-26T05:30:07.408Z,101404.16
2022-12-26T05:32:52.909Z,101411.03
2022-12-26T05:35:20.252Z,101430.81
2022-12-26T05:37:47.024Z,101424.72
2022-12-26T05:40:13.837Z,101432.44
2022-12-26T05:42:40.625Z,101430.72
2022-12-26T05:45:07.662Z,101433.34
2022-12-26T05:47:34.487Z,101435.16
2022-12-26T05:50:02.108Z,101429.09
2022-12-26T05:52:28.856Z,101425.66
2022-12-26T05:54:57.729Z,101420.47
2022-12-26T05:57:24.521Z,101435.91
2022-12-26T05:59:51.259Z,101440.19
2022-12-26T06:02:18.203Z,101456.50
2022-12-26T06:04:45.046Z,101468.50
2022-12-26T06:07:12.048Z,101489.09
2022-12-26T06:09:38.985Z,101483.03
2022-12-26T06:12:05.972Z,101458.75
2022-12-26T06:14:32.693Z,101444.84
2022-12-26T06:16:59.515Z,101451.66
2022-12-26T06:19:26.307Z,101456.81
2022-12-26T06:21:53.237Z,101452.53
2022-12-26T06:24:20.426Z,101466.41
2022-12-26T06:26:47.175Z,101451.81
2022-12-26T06:29:13.847Z,101464.81
2022-12-26T06:31:43.627Z,101468.41
2022-12-26T06:34:11.880Z,101467.66
2022-12-26T06:36:38.881Z,101467.66
2022-12-26T06:39:05.734Z,101470.19
2022-12-26T06:41:32.549Z,101470.16
2022-12-26T06:44:00.151Z,101464.13
2022-12-26T06:46:27.143Z,101471.91
2022-12-26T06:48:54.234Z,101480.47
2022-12-26T06:51:23.969Z,101468.41
2022-12-26T06:53:52.080Z,101466.72
2022-12-26T06:56:21.730Z,101475.31
2022-12-26T06:58:52.817Z,101481.34
2022-12-26T07:01:20.742Z,101477.09
2022-12-26T07:03:51.969Z,101473.63
2022-12-26T07:06:25.859Z,101475.34
2022-12-26T07:08:54.523Z,101479.66
2022-12-26T07:11:23.864Z,101477.06
2022-12-26T07:13:50.652Z,101492.47
2022-12-26T07:16:17.957Z,101504.44
2022-12-26T07:18:44.775Z,101506.94
2022-12-26T07:21:14.148Z,101519.88
2022-12-26T07:23:41.187Z,101529.34
2022-12-26T07:26:08.425Z,101543.97
2022-12-26T07:28:35.407Z,101537.84
2022-12-26T07:31:02.887Z,101522.19
2022-12-26T07:33:30.541Z,101522.97
2022-12-26T07:36:05.113Z,101529.81
2022-12-26T07:38:33.513Z,101522.06
2022-12-26T07:41:20.640Z,101505.69
2022-12-26T07:43:47.449Z,101515.22
2022-12-26T07:46:14.231Z,101520.56
2022-12-26T07:48:40.989Z,101517.31
2022-12-26T07:51:07.935Z,101530.44
2022-12-26T07:53:34.705Z,101530.56
2022-12-26T07:56:03.588Z,101537.59
2022-12-26T07:58:30.369Z,101530.75
2022-12-26T08:01:02.281Z,101536.03
2022-12-26T08:03:29.275Z,101536.06
2022-12-26T08:05:56.617Z,101540.47
2022-12-26T08:08:23.672Z,101535.34
2022-12-26T08:10:59.218Z,101544.00
2022-12-26T08:13:26.009Z,101544.06
2022-12-26T08:15:53.353Z,101544.09
2022-12-26T08:18:20.792Z,101554.44
2022-12-26T08:20:47.552Z,101550.09
2022-12-26T08:23:14.395Z,101560.44
2022-12-26T08:25:41.222Z,101564.69
2022-12-26T08:28:08.457Z,101564.59
2022-12-26T08:30:35.301Z,101574.91
2022-12-26T08:33:02.123Z,101580.88
2022-12-26T08:35:30.304Z,101573.97
2022-12-26T08:37:57.117Z,101574.84
2022-12-26T08:40:41.858Z,101585.25
2022-12-26T08:43:31.085Z,101575.88
2022-12-26T08:46:04.766Z,101587.16
2022-12-26T08:48:32.581Z,101586.31
2022-12-26T08:51:08.646Z,101582.88
2022-12-26T08:53:36.803Z,101588.03
2022-12-26T08:56:05.885Z,101586.31
2022-12-26T08:58:35.379Z,101596.63
2022-12-26T09:01:10.945Z,101594.88
2022-12-26T09:03:38.279Z,101612.06
2022-12-26T09:06:06.456Z,101616.34
2022-12-26T09:08:35.106Z,101615.44
2022-12-26T09:11:06.787Z,101618.94
2022-12-26T09:13:34.043Z,101615.50
2022-12-26T09:16:12.885Z,101618.09
2022-12-26T09:18:40.012Z,101617.25
2022-12-26T09:21:10.237Z,101616.38
2022-12-26T09:23:37.854Z,101620.69
2022-12-26T09:26:06.107Z,101626.72
2022-12-26T09:28:33.262Z,101636.19
2022-12-26T09:31:01.927Z,101647.38
2022-12-26T09:33:30.602Z,101643.03
2022-12-26T09:36:03.383Z,101655.88
2022-12-26T09:38:31.435Z,101659.22
2022-12-26T09:41:03.804Z,101661.66
2022-12-26T09:43:50.099Z,101650.25
2022-12-26T09:46:33.256Z,101645.75
2022-12-26T09:49:13.936Z,101643.03
2022-12-26T09:51:43.444Z,101649.03
2022-12-26T09:54:27.055Z,101651.59
2022-12-26T09:57:03.444Z,101658.38
2022-12-26T09:59:38.612Z,101651.09
2022-12-26T10:02:11.011Z,101651.50
2022-12-26T10:04:37.793Z,101654.66
2022-12-26T10:07:07.529Z,101656.22
2022-12-26T10:09:45.779Z,101664.81
2022-12-26T10:12:23.513Z,101671.78
2022-12-26T10:15:15.226Z,101679.63
2022-12-26T10:18:03.911Z,101683.09
2022-12-26T10:20:59.145Z,101678.00
2022-12-26T10:23:34.297Z,101676.28
2022-12-26T10:26:16.048Z,101669.34
2022-12-26T10:29:09.999Z,101666.69
2022-12-26T10:32:09.203Z,101666.69
2022-12-26T10:34:41.123Z,101678.63
2022-12-26T10:37:07.975Z,101681.09
2022-12-26T10:39:43.517Z,101687.75
2022-12-26T10:42:26.890Z,101689.25
2022-12-26T10:44:54.154Z,101684.94
2022-12-26T10:47:33.000Z,101690.22
2022-12-26T10:50:00.245Z,101694.75
2022-12-26T10:52:35.530Z,101692.34
2022-12-26T10:55:27.127Z,101699.38
2022-12-26T10:57:52.804Z,101692.50
2022-12-26T11:00:28.012Z,101691.66
2022-12-26T11:03:13.573Z,101695.19
2022-12-26T11:08:43.055Z,101696.19
2022-12-26T11:11:22.682Z,101691.81
2022-12-26T11:14:01.889Z,101687.44
2022-12-26T11:16:32.991Z,101676.94
2022-12-26T11:19:00.059Z,101680.22
2022-12-26T11:21:29.705Z,101681.03
2022-12-26T11:24:09.006Z,101681.66
2022-12-26T11:26:37.144Z,101677.09
2022-12-26T11:29:14.967Z,101673.25
2022-12-26T11:31:49.952Z,101681.56
2022-12-26T11:34:29.471Z,101679.53
2022-12-26T11:36:56.508Z,101677.53
2022-12-26T11:39:27.190Z,101675.63
2022-12-26T11:41:54.564Z,101679.75
2022-12-26T11:44:29.436Z,101676.88
2022-12-26T11:47:09.904Z,101681.81
2022-12-26T11:50:00.185Z,101691.34
2022-12-26T11:52:53.731Z,101698.31
2022-12-26T11:55:23.521Z,101703.66
2022-12-26T11:58:17.843Z,101702.09
2022-12-26T12:00:50.865Z,101704.78
2022-12-26T12:03:26.894Z,101694.44
2022-12-26T12:06:02.062Z,101696.28
2022-12-26T12:08:39.511Z,101701.63
2022-12-26T12:11:21.367Z,101697.13
2022-12-26T12:13:58.650Z,101705.50
2022-12-26T12:16:45.753Z,101695.69
2022-12-26T12:19:39.150Z,101696.41
2022-12-26T12:22:45.081Z,101699.53
2022-12-26T12:25:28.284Z,101705.28
2022-12-26T12:28:19.319Z,101692.72
2022-12-26T12:30:59.164Z,101719.78
2022-12-26T12:33:25.870Z,101743.75
2022-12-26T12:36:01.678Z,101750.47
2022-12-26T12:38:54.689Z,101758.16
2022-12-26T12:42:04.229Z,101728.38
2022-12-26T12:44:56.930Z,101730.34
2022-12-26T12:47:53.079Z,101718.44
2022-12-26T12:50:19.859Z,101713.41
2022-12-26T12:53:01.591Z,101712.78
2022-12-26T12:55:28.334Z,101707.78
2022-12-26T12:58:13.567Z,101714.91
2022-12-26T13:00:46.988Z,101720.31
2022-12-26T13:03:38.679Z,101706.56
2022-12-26T13:06:09.004Z,101720.41
2022-12-26T13:08:47.496Z,101712.66
2022-12-26T13:11:25.835Z,101716.19
2022-12-26T13:14:12.121Z,101706.59
2022-12-26T13:16:46.375Z,101714.34
2022-12-26T13:19:41.732Z,101708.34
2022-12-26T13:22:25.793Z,101707.59
2022-12-26T13:24:59.323Z,101708.47
2022-12-26T13:27:30.542Z,101702.44
2022-12-26T13:29:58.047Z,101699.00
2022-12-26T13:32:31.200Z,101699.66
2022-12-26T13:35:00.001Z,101703.75
2022-12-26T13:37:35.560Z,101707.81
2022-12-26T13:40:15.747Z,101714.72
2022-12-26T13:43:33.105Z,101728.53
2022-12-26T13:46:03.062Z,101726.81
2022-12-26T13:48:32.944Z,101740.63
2022-12-26T13:51:04.971Z,101737.16
2022-12-26T13:53:34.451Z,101750.06
2022-12-26T13:56:15.041Z,101747.31
2022-12-26T13:59:07.961Z,101733.25
2022-12-26T14:01:46.118Z,101733.91
2022-12-26T14:04:34.443Z,101746.72
2022-12-26T14:07:43.215Z,101724.91
2022-12-26T14:10:17.893Z,101728.31
2022-12-26T14:13:28.327Z,101730.97
2022-12-26T14:16:16.890Z,101731.03
2022-12-26T14:18:57.726Z,101731.97
2022-12-26T14:21:35.787Z,101733.03
2022-12-26T14:24:45.735Z,101726.31
2022-12-26T14:27:30.383Z,101734.09
2022-12-26T14:30:00.440Z,101742.69
2022-12-26T14:32:39.811Z,101731.47
2022-12-26T14:35:32.904Z,101742.69
2022-12-26T14:38:02.611Z,101747.00
2022-12-26T14:40:34.863Z,101752.22
2022-12-26T14:43:11.396Z,101747.06
2022-12-26T14:45:40.529Z,101757.44
2022-12-26T14:48:16.576Z,101748.63
2022-12-26T14:50:55.433Z,101744.88
2022-12-26T14:53:27.359Z,101748.81
2022-12-26T14:55:54.396Z,101752.91
2022-12-26T14:58:36.864Z,101764.16
2022-12-26T15:01:09.815Z,101769.34
2022-12-26T15:03:51.736Z,101774.06
2022-12-26T15:06:21.191Z,101781.03
2022-12-26T15:08:54.253Z,101779.31
2022-12-26T15:11:39.636Z,101771.50
2022-12-26T15:14:25.054Z,101775.78
2022-12-26T15:17:20.647Z,101771.44
2022-12-26T15:19:59.617Z,101770.53
2022-12-26T15:22:44.579Z,101767.03
2022-12-26T15:25:34.566Z,101776.56
2022-12-26T15:28:21.699Z,101788.53
2022-12-26T15:31:27.270Z,101794.69
2022-12-26T15:34:11.161Z,101796.47
2022-12-26T15:36:55.246Z,101793.81
2022-12-26T15:39:24.934Z,101798.13
2022-12-26T15:42:10.468Z,101791.22
2022-12-26T15:45:07.549Z,101790.41
2022-12-26T15:47:58.276Z,101788.13
2022-12-26T15:50:30.728Z,101788.34
2022-12-26T15:53:41.736Z,101786.06
2022-12-26T15:56:27.090Z,101788.16
2022-12-26T15:59:11.819Z,101792.84
2022-12-26T16:01:46.361Z,101793.09
2022-12-26T16:04:25.779Z,101795.06
2022-12-26T16:07:19.677Z,101794.34
2022-12-26T16:09:53.198Z,101799.56
2022-12-26T16:12:26.035Z,101809.97
2022-12-26T16:15:11.078Z,101818.66
2022-12-26T16:17:42.032Z,101826.34
2022-12-26T16:20:41.586Z,101830.63
2022-12-26T16:23:15.222Z,101829.69
2022-12-26T16:25:49.994Z,101835.69
2022-12-26T16:28:22.846Z,101842.63
2022-12-26T16:30:49.796Z,101846.06
2022-12-26T16:33:16.753Z,101847.81
2022-12-26T16:35:44.448Z,101841.84
2022-12-26T16:38:16.237Z,101850.63
2022-12-26T16:40:49.862Z,101844.69
2022-12-26T16:43:19.400Z,101846.50
2022-12-26T16:45:51.917Z,101845.66
2022-12-26T16:48:24.427Z,101844.75
2022-12-26T16:50:58.253Z,101857.72
2022-12-26T16:53:45.488Z,101861.22
2022-12-26T16:56:36.034Z,101858.63
2022-12-26T16:59:17.585Z,101859.59
2022-12-26T17:01:54.239Z,101860.50
2022-12-26T17:04:24.353Z,101857.97
2022-12-26T17:06:59.319Z,101853.72
2022-12-26T17:09:32.272Z,101863.31
2022-12-26T17:12:07.835Z,101854.78
2022-12-26T17:14:40.098Z,101858.34
2022-12-26T17:17:27.331Z,101863.63
2022-12-26T17:19:56.538Z,101868.03
2022-12-26T17:22:29.207Z,101865.41
2022-12-26T17:25:22.151Z,101874.09
2022-12-26T17:28:08.883Z,101873.97
2022-12-26T17:30:38.064Z,101886.06
2022-12-26T17:33:14.699Z,101894.59
2022-12-26T17:36:38.250Z,101900.56
2022-12-26T17:38:30.275Z,101890.97
2022-12-26T17:41:01.303Z,101885.78
2022-12-26T17:43:33.235Z,101892.78
2022-12-26T17:46:03.105Z,101885.97
2022-12-26T17:48:30.715Z,101891.31
2022-12-26T17:51:04.813Z,101887.06
2022-12-26T17:53:34.016Z,101886.28
2022-12-26T17:56:07.327Z,101898.47
2022-12-26T17:58:34.783Z,101889.91
2022-12-26T18:01:01.754Z,101905.44
2022-12-26T18:03:28.776Z,101901.97
2022-12-26T18:05:59.048Z,101900.19
2022-12-26T18:08:37.706Z,101904.44
2022-12-26T18:11:06.850Z,101907.00
2022-12-26T18:13:34.213Z,101909.63
2022-12-26T18:16:01.594Z,101911.38
2022-12-26T18:18:34.780Z,101911.38
2022-12-26T18:21:03.231Z,101919.22
2022-12-26T18:23:30.064Z,101919.31
2022-12-26T18:26:01.146Z,101914.19
2022-12-26T18:28:30.917Z,101922.88
2022-12-26T18:30:58.346Z,101923.81
2022-12-26T18:33:25.674Z,101917.81
2022-12-26T18:35:53.449Z,101916.16
2022-12-26T18:38:22.123Z,101913.59
2022-12-26T18:40:53.571Z,101916.25
2022-12-26T18:43:20.532Z,101915.38
2022-12-26T18:45:47.359Z,101923.22
2022-12-26T18:48:16.863Z,101921.53
2022-12-26T18:50:46.541Z,101918.09
2022-12-26T18:53:13.352Z,101920.72
2022-12-26T18:55:40.875Z,101916.38
2022-12-26T18:58:07.844Z,101921.56
2022-12-26T19:00:37.090Z,101924.16
2022-12-26T19:03:04.126Z,101930.22
2022-12-26T19:05:33.966Z,101927.63
2022-12-26T19:08:02.200Z,101932.81
2022-12-26T19:10:31.751Z,101930.22
2022-12-26T19:13:05.981Z,101920.75
2022-12-26T19:15:35.112Z,101920.78
2022-12-26T19:18:04.856Z,101916.50
2022-12-26T19:20:32.050Z,101925.16
2022-12-26T19:22:58.878Z,101925.22
2022-12-26T19:25:26.238Z,101928.72
2022-12-26T19:27:53.361Z,101933.94
2022-12-26T19:30:21.430Z,101927.06
2022-12-26T19:32:48.996Z,101927.13
2022-12-26T19:35:16.264Z,101918.53
2022-12-26T19:37:43.389Z,101919.44
2022-12-26T19:40:12.382Z,101912.56
2022-12-26T19:42:39.590Z,101910.88
2022-12-26T19:45:09.464Z,101922.91
2022-12-26T19:47:36.750Z,101915.16
2022-12-26T19:50:05.250Z,101922.91
2022-12-26T19:52:32.202Z,101927.22
2022-12-26T19:54:58.940Z,101921.16
2022-12-26T19:57:25.731Z,101928.06
2022-12-26T19:59:52.546Z,101916.84
2022-12-26T20:02:19.451Z,101917.69
2022-12-26T20:04:46.459Z,101929.72
2022-12-26T20:07:13.584Z,101939.22
2022-12-26T20:09:40.354Z,101941.78
2022-12-26T20:12:07.363Z,101935.75
2022-12-26T20:14:34.261Z,101938.31
2022-12-26T20:17:06.612Z,101929.66
2022-12-26T20:19:34.300Z,101940.00
2022-12-26T20:22:01.107Z,101932.19
2022-12-26T20:24:27.816Z,101919.25
2022-12-26T20:26:54.905Z,101926.16
2022-12-26T20:29:21.939Z,101916.72
2022-12-26T20:31:49.521Z,101923.59
2022-12-26T20:34:16.951Z,101930.50
2022-12-26T20:36:44.086Z,101938.22
2022-12-26T20:39:14.363Z,101927.00
2022-12-26T20:41:41.627Z,101909.72
2022-12-26T20:44:08.467Z,101907.13
2022-12-26T20:46:36.287Z,101922.66
2022-12-26T20:49:04.885Z,101920.91
2022-12-26T20:51:37.347Z,101917.47
2022-12-26T20:54:05.731Z,101908.88
2022-12-26T20:56:32.647Z,101909.78
2022-12-26T20:58:59.850Z,101913.22
2022-12-26T21:01:28.467Z,101921.88
2022-12-26T21:03:56.843Z,101924.50
2022-12-26T21:06:32.438Z,101918.47
2022-12-26T21:08:59.336Z,101921.97
2022-12-26T21:11:31.632Z,101915.09
2022-12-26T21:14:05.501Z,101919.41
2022-12-26T21:16:38.561Z,101918.56
2022-12-26T21:19:14.321Z,101922.91
2022-12-26T21:21:44.393Z,101918.59
2022-12-26T21:24:24.225Z,101912.56
2022-12-26T21:26:51.731Z,101920.38
2022-12-26T21:29:22.268Z,101926.38
2022-12-26T21:31:49.557Z,101934.13
2022-12-26T21:34:21.938Z,101934.13
2022-12-26T21:37:07.823Z,101924.69
2022-12-26T21:39:36.299Z,101934.13
2022-12-26T21:42:06.189Z,101931.56
2022-12-26T21:44:33.958Z,101936.72
2022-12-26T21:47:00.693Z,101935.88
2022-12-26T21:49:27.872Z,101938.47
2022-12-26T21:51:54.660Z,101929.81
2022-12-26T21:54:44.869Z,101932.41
2022-12-26T21:57:15.814Z,101939.31
2022-12-26T21:59:57.982Z,101941.03
2022-12-26T22:02:49.764Z,101947.91
2022-12-26T22:05:18.936Z,101952.22
2022-12-26T22:07:45.834Z,101946.19
2022-12-26T22:10:31.957Z,101952.22
2022-12-26T22:12:58.765Z,101945.31
2022-12-26T22:15:44.662Z,101936.72
2022-12-26T22:18:12.904Z,101933.25
2022-12-26T22:20:40.977Z,101927.22
2022-12-26T22:23:07.961Z,101929.81
2022-12-26T22:25:34.748Z,101922.94
2022-12-26T22:28:01.661Z,101923.78
2022-12-26T22:30:28.476Z,101928.09
2022-12-26T22:32:55.475Z,101919.47
2022-12-26T22:35:22.654Z,101924.59
2022-12-26T22:37:49.476Z,101932.34
2022-12-26T22:40:16.257Z,101925.44
2022-12-26T22:42:42.981Z,101927.13
2022-12-26T22:45:09.992Z,101909.91
2022-12-26T22:47:36.732Z,101915.94
2022-12-26T22:50:03.616Z,101921.09
2022-12-26T22:52:30.389Z,101927.97
2022-12-26T22:54:57.147Z,101926.22
2022-12-26T22:57:23.924Z,101917.56
2022-12-26T23:00:08.285Z,101916.72
2022-12-26T23:02:35.862Z,101923.56
2022-12-26T23:05:03.186Z,101925.25
2022-12-26T23:07:30.259Z,101932.09
2022-12-26T23:09:57.246Z,101927.75
2022-12-26T23:12:43.000Z,101925.97
2022-12-26T23:15:23.282Z,101923.31
2022-12-26T23:18:27.689Z,101924.13
2022-12-26T23:21:13.846Z,101923.22
2022-12-26T23:23:40.954Z,101924.91
2022-12-26T23:26:07.816Z,101923.16
2022-12-26T23:28:53.002Z,101917.09
2022-12-26T23:31:19.732Z,101903.22
2022-12-26T23:33:46.471Z,101900.63
2022-12-26T23:36:13.355Z,101902.28
2022-12-26T23:38:40.086Z,101897.97
2022-12-26T23:41:06.809Z,101898.84
2022-12-26T23:43:33.775Z,101895.34
2022-12-26T23:46:01.087Z,101897.06
2022-12-26T23:48:28.201Z,101893.56
2022-12-26T23:51:02.809Z,101892.72
2022-12-26T23:53:29.719Z,101899.59
2022-12-26T23:55:57.544Z,101897.88
2022-12-26T23:58:24.680Z,101890.03
